首页
METAR-TAF:

METAR-TAF

机场 :

里士满国际机场

里士满, 弗吉尼亚州, 美国

纬度: 37-30-40N, 经度: 077-19-24W, 海拔: 51米

当前天气观测

该预报发布于36分钟前的10:54 UTC
静风
温度 1°C
湿度 80%
气压 1023 hPa
能見度: 16.1公里
少量云层高于30000英尺

METAR: KRIC 171054Z 00000KT 10SM FEW300 01/M02 A3021 RMK AO2 SLP236 T00061017

时间: 06:30 (11:30 UTC)

预报

该预报发布于6小时和10分钟前的05:20 UTC
预报有效从17日的 06点(UTC)到 18日的 06点(UTC)
风速3节,风向多变
能見度: 10公里
天空无云
从 17日的 1500点(UTC)
风速4节,风向北转东北
能見度: 10公里
少量云层高于25000英尺
从 17日的 1800点(UTC)
风速节,风向
能見度: 10公里
少量云层高于25000英尺

TAF: KRIC 170520Z 1706/1806 VRB03KT P6SM SKC FM171500 03004KT P6SM FEW250 FM171800 00000KT P6SM FEW250

超过4000个机场的气象观测和天气预报(METAR&TAF报告)。

可查询的气象台以黄色和红色小点在地图上表示。

将鼠标移到小点上方,可查看气象台名称。

然后点击查看天气观测和预报。

如需切换地图:点击带黑十字的绿色按钮放大地图;点击带横线的绿色按钮缩小地图;或者点击绿色箭头查看邻近地区的地图。


METAR-TAF: